Cactus, TX (79013)

1:56 PM CDT on September 19, 2014 (GMT -0500)
Moore County | Change Station
CLOSE
Current Station
Airport
Location: Dumas,
Elevation: 3704 ft
Nearby Weather Stations

Elev 3704 ft 35.86 °N, 102.01 °W | Updated 21 minutes ago

Mostly Cloudy
Mostly Cloudy
74 °F
Feels Like 74 °F
N
9
Wind Variable Wind from South

Today
High -- | Low -- °F
--% Chance of Precip.
Yesterday
High -- | Low -- °F
Precip. -- in
7:33 AM 7:49 PM
Waning Crescent, 17% visible
Pressure 30.05 in
Visibility 10.0 miles
Clouds Scattered Clouds 900 ft
Scattered Clouds 1800 ft
Mostly Cloudy 5500 ft
Dew Point 67 °F
Humidity 77%
Rainfall 0.00 in
Snow Depth Not available.
UV 5 out of 12
Pollen 6.80 out of 12
Air Quality Not available.
Flu Activity Not available.
METAR KDUX 191835Z AUTO 19008KT 10SM SCT009 SCT018 BKN055 24/19 A3005 RMK AO2 T02360194

More Conditions Fewer Conditions

Pressure 30.05 in
Visibility 10.0 miles
Clouds Scattered Clouds 900 ft
Scattered Clouds 1800 ft
Mostly Cloudy 5500 ft
Dew Point 67 °F
Humidity 77%
Rainfall 0.00 in
Snow Depth Not available.
UV 5 out of 12
Pollen 6.80 out of 12
Air Quality Not available.
Flu Activity Not available.
METAR KDUX 191835Z AUTO 19008KT 10SM SCT009 SCT018 BKN055 24/19 A3005 RMK AO2 T02360194

More Conditions Fewer Conditions

10-Day Weather Forecast

Almanac

Astronomy

Sep. 19, 2014 Rise Set
Actual Time 7:33 AM CDT 7:49 PM CDT
Civil Twilight 7:07 AM CDT 8:14 PM CDT
Nautical Twilight 6:37 AM CDT 8:44 PM CDT
Astronomical Twilight 6:07 AM CDT 9:15 PM CDT
Moon 3:26 AM CDT 5:13 PM CDT
Length of Visible Light 13h 06m
Length of Day
12h 15m
Tomorrow will be 2m 16s shorter.
Waning Crescent, 17% of the Moon is Illuminated
Today
Waning Crescent
Sep 24
New
Oct 1
First Quarter
Oct 8
Full
Oct 15
Last Quarter

Today's Extremes

State Highs State Lows

Community

WunderPhotos

Upload Photos

1,754,680 photos uploaded!

WunderBlogs® & News

Nearby

Snow Depth

Station Depth Elevation
No new snow has been reported.

Earthquake Activity

City Distance Mag. Time & Date
No recent earthquake activity has been reported nearby.
Minimum magnitude displayed is 2.5.

Coastal Water Temperatures

Place Temperature
No Stations Reporting

Nearby Weather Stations